createdAt,value
2023-05-11T00:00:34.780Z,69.30
2023-05-11T00:01:37.381Z,69.40
2023-05-11T00:02:40.196Z,69.20
2023-05-11T00:03:42.709Z,69.20
2023-05-11T00:04:44.955Z,69.40
2023-05-11T00:05:48.777Z,69.60
2023-05-11T00:06:50.934Z,69.70
2023-05-11T00:07:53.038Z,69.80
2023-05-11T00:08:55.336Z,70.00
2023-05-11T00:09:57.511Z,70.20
2023-05-11T00:11:02.720Z,70.30
2023-05-11T00:12:05.143Z,70.40
2023-05-11T00:13:07.236Z,70.50
2023-05-11T00:14:10.775Z,70.60
2023-05-11T00:15:12.920Z,70.70
2023-05-11T00:16:15.161Z,70.80
2023-05-11T00:17:18.998Z,71.00
2023-05-11T00:18:21.632Z,71.10
2023-05-11T00:19:23.756Z,71.20
2023-05-11T00:20:25.969Z,71.40
2023-05-11T00:21:28.102Z,71.70
2023-05-11T00:22:30.436Z,71.90
2023-05-11T00:23:32.610Z,72.20
2023-05-11T00:24:34.890Z,72.50
2023-05-11T00:25:37.081Z,73.00
2023-05-11T00:26:39.229Z,73.40
2023-05-11T00:27:45.876Z,73.70
2023-05-11T00:28:48.092Z,73.80
2023-05-11T00:29:51.883Z,74.00
2023-05-11T00:30:56.393Z,74.10
2023-05-11T00:31:58.554Z,74.20
2023-05-11T00:33:00.794Z,74.20
2023-05-11T00:34:02.936Z,74.30
2023-05-11T00:35:06.270Z,74.30
2023-05-11T00:36:08.693Z,74.40
2023-05-11T00:37:10.864Z,74.50
2023-05-11T00:38:12.960Z,74.70
2023-05-11T00:39:15.098Z,75.00
2023-05-11T00:40:17.520Z,75.10
2023-05-11T00:41:19.724Z,75.30
2023-05-11T00:42:21.837Z,75.60
2023-05-11T00:43:23.964Z,75.80
2023-05-11T00:44:26.160Z,76.00
2023-05-11T00:45:30.477Z,76.20
2023-05-11T00:46:32.793Z,76.50
2023-05-11T00:47:35.048Z,76.50
2023-05-11T00:48:37.589Z,77.30
2023-05-11T00:49:39.991Z,76.80
2023-05-11T00:50:42.890Z,77.00
2023-05-11T00:51:45.133Z,77.20
2023-05-11T00:52:48.177Z,77.30
2023-05-11T00:53:50.708Z,77.40
2023-05-11T00:54:53.172Z,77.60
2023-05-11T00:55:55.346Z,77.80
2023-05-11T00:56:57.473Z,77.80
2023-05-11T00:58:00.708Z,78.00
2023-05-11T00:59:03.325Z,78.30
2023-05-11T01:00:07.228Z,78.50
2023-05-11T01:01:10.915Z,78.60
2023-05-11T01:02:13.149Z,78.60
2023-05-11T01:03:16.674Z,78.60
2023-05-11T01:04:19.419Z,78.80
2023-05-11T01:05:21.783Z,78.90
2023-05-11T01:06:32.721Z,79.00
2023-05-11T01:07:40.709Z,79.20
2023-05-11T01:08:48.052Z,79.30
2023-05-11T01:10:00.506Z,79.50
2023-05-11T01:11:08.267Z,79.70
2023-05-11T01:12:15.861Z,79.80
2023-05-11T01:13:26.755Z,79.90
2023-05-11T01:14:37.132Z,80.10
2023-05-11T01:15:46.470Z,80.30
2023-05-11T01:16:55.956Z,80.50
2023-05-11T01:18:07.863Z,81.40
2023-05-11T01:19:18.474Z,81.00
2023-05-11T01:20:26.947Z,81.20
2023-05-11T01:21:34.451Z,81.20
2023-05-11T01:22:50.539Z,81.60
2023-05-11T01:24:12.210Z,81.80
2023-05-11T01:25:28.736Z,81.90
2023-05-11T01:26:45.354Z,82.00
2023-05-11T01:28:15.457Z,82.40
2023-05-11T01:29:46.809Z,82.50
2023-05-11T01:30:53.019Z,82.70
2023-05-11T01:33:14.533Z,83.10
2023-05-11T01:34:23.665Z,83.40
2023-05-11T01:35:27.645Z,83.70
2023-05-11T01:36:34.361Z,83.90
2023-05-11T01:37:41.444Z,84.20
2023-05-11T01:38:46.715Z,84.50
2023-05-11T01:39:52.838Z,84.80
2023-05-11T01:40:57.806Z,85.00
2023-05-11T01:42:07.122Z,85.10
2023-05-11T01:43:13.765Z,85.40
2023-05-11T01:44:19.789Z,85.90
2023-05-11T01:45:26.096Z,86.20
2023-05-11T01:46:33.123Z,86.50
2023-05-11T01:47:37.332Z,86.80
2023-05-11T01:48:44.596Z,87.20
2023-05-11T01:49:47.333Z,87.50
2023-05-11T01:50:51.302Z,87.50
2023-05-11T01:51:55.111Z,87.60
2023-05-11T01:52:58.013Z,87.70
2023-05-11T01:54:01.858Z,87.90
2023-05-11T01:55:06.066Z,88.10
2023-05-11T01:56:09.360Z,88.10
2023-05-11T01:57:13.678Z,88.30
2023-05-11T01:58:17.153Z,88.60
2023-05-11T01:59:19.991Z,88.80
2023-05-11T02:00:23.855Z,88.80
2023-05-11T02:01:28.076Z,89.00
2023-05-11T02:02:32.345Z,89.10
2023-05-11T02:03:36.888Z,89.10
2023-05-11T02:04:40.209Z,89.30
2023-05-11T02:05:44.088Z,89.30
2023-05-11T02:06:48.418Z,89.20
2023-05-11T02:07:52.740Z,89.20
2023-05-11T02:08:56.371Z,89.20
2023-05-11T02:10:00.489Z,89.20
2023-05-11T02:11:04.444Z,89.30
2023-05-11T02:12:08.838Z,89.30
2023-05-11T02:13:11.580Z,89.50
2023-05-11T02:14:15.273Z,89.50
2023-05-11T02:15:17.989Z,89.50
2023-05-11T02:16:21.138Z,89.40
2023-05-11T02:17:25.306Z,89.60
2023-05-11T02:18:29.702Z,89.70
2023-05-11T02:19:33.650Z,89.80
2023-05-11T02:20:36.389Z,90.00
2023-05-11T02:21:39.604Z,90.00
2023-05-11T02:22:45.147Z,90.10
2023-05-11T02:23:50.037Z,90.10
2023-05-11T02:24:52.210Z,90.10
2023-05-11T02:25:54.984Z,90.10
2023-05-11T02:26:57.739Z,90.10
2023-05-11T02:28:00.007Z,90.10
2023-05-11T02:29:02.290Z,90.20
2023-05-11T02:30:05.367Z,90.20
2023-05-11T02:31:11.308Z,90.30
2023-05-11T02:32:17.720Z,90.40
2023-05-11T02:33:25.665Z,90.70
2023-05-11T02:34:34.392Z,90.50
2023-05-11T02:35:41.081Z,90.50
2023-05-11T02:36:44.058Z,90.60
2023-05-11T02:37:48.335Z,90.70
2023-05-11T02:38:55.254Z,91.00
2023-05-11T02:40:01.055Z,90.70
2023-05-11T02:41:07.314Z,90.70
2023-05-11T02:42:14.637Z,90.70
2023-05-11T02:43:32.900Z,90.70
2023-05-11T02:44:38.079Z,90.70
2023-05-11T02:45:44.642Z,90.80
2023-05-11T02:46:48.897Z,90.80
2023-05-11T02:47:54.681Z,90.90
2023-05-11T02:49:01.238Z,91.30
2023-05-11T02:50:06.639Z,91.00
2023-05-11T02:51:12.527Z,91.10
2023-05-11T02:52:16.213Z,91.20
2023-05-11T02:53:20.465Z,91.30
2023-05-11T02:54:24.727Z,91.30
2023-05-11T02:55:29.126Z,91.30
2023-05-11T02:56:31.767Z,91.40
2023-05-11T02:57:33.969Z,91.50
2023-05-11T02:58:36.583Z,91.60
2023-05-11T02:59:38.985Z,91.90
2023-05-11T03:00:41.297Z,91.60
2023-05-11T03:01:44.919Z,91.70
2023-05-11T03:02:47.154Z,91.80
2023-05-11T03:03:49.476Z,91.80
2023-05-11T03:04:51.694Z,91.90
2023-05-11T03:05:55.246Z,91.90
2023-05-11T03:06:57.434Z,91.90
2023-05-11T03:08:00.553Z,91.90
2023-05-11T03:09:02.825Z,91.90
2023-05-11T03:10:06.344Z,91.90
2023-05-11T03:11:11.089Z,91.90
2023-05-11T03:12:14.564Z,91.90
2023-05-11T03:13:16.869Z,92.00
2023-05-11T03:14:19.171Z,92.00
2023-05-11T03:15:22.094Z,92.00
2023-05-11T03:16:24.731Z,92.10
2023-05-11T03:17:28.675Z,92.10
2023-05-11T03:18:32.389Z,92.10
2023-05-11T03:19:35.299Z,92.10
2023-05-11T03:20:42.039Z,92.10
2023-05-11T03:21:46.675Z,92.10
2023-05-11T03:22:49.583Z,92.20
2023-05-11T03:23:52.213Z,92.20
2023-05-11T03:24:54.719Z,92.20
2023-05-11T03:25:58.684Z,92.20
2023-05-11T03:27:04.233Z,92.20
2023-05-11T03:28:07.325Z,92.20
2023-05-11T03:29:10.141Z,92.20
2023-05-11T03:30:14.575Z,92.30
2023-05-11T03:31:18.346Z,92.60
2023-05-11T03:32:20.687Z,92.30
2023-05-11T03:33:23.370Z,92.30
2023-05-11T03:34:25.695Z,92.30
2023-05-11T03:35:29.255Z,92.20
2023-05-11T03:36:33.152Z,92.30
2023-05-11T03:37:38.327Z,92.30
2023-05-11T03:38:41.366Z,92.30
2023-05-11T03:39:45.678Z,92.20
2023-05-11T03:40:49.562Z,92.20
2023-05-11T03:41:53.326Z,92.20
2023-05-11T03:42:56.827Z,92.30
2023-05-11T03:44:02.425Z,92.30
2023-05-11T03:45:09.105Z,92.30
2023-05-11T03:46:13.726Z,92.30
2023-05-11T03:47:17.503Z,92.30
2023-05-11T03:48:20.714Z,92.20
2023-05-11T03:49:23.980Z,92.20
2023-05-11T03:50:27.502Z,92.40
2023-05-11T03:51:31.881Z,92.10
2023-05-11T03:52:36.838Z,92.10
2023-05-11T03:53:39.301Z,92.00
2023-05-11T03:54:42.701Z,91.90
2023-05-11T03:55:44.907Z,91.90
2023-05-11T03:56:47.047Z,91.90
2023-05-11T03:57:49.244Z,91.80
2023-05-11T03:58:52.303Z,91.70
2023-05-11T03:59:54.432Z,91.50
2023-05-11T04:00:56.570Z,91.20
2023-05-11T04:01:59.015Z,91.00
2023-05-11T04:03:04.791Z,90.80
2023-05-11T04:04:07.220Z,90.60
2023-05-11T04:05:10.828Z,90.40
2023-05-11T04:06:12.966Z,90.20
2023-05-11T04:07:15.080Z,89.60
2023-05-11T04:08:18.607Z,89.00
2023-05-11T04:09:20.776Z,88.40
2023-05-11T04:10:23.661Z,87.80
2023-05-11T04:11:27.591Z,87.20
2023-05-11T04:12:29.723Z,86.70
2023-05-11T04:13:31.867Z,86.10
2023-05-11T04:14:34.006Z,85.40
2023-05-11T04:15:37.621Z,84.60
2023-05-11T04:16:39.980Z,83.90
2023-05-11T04:17:42.220Z,83.30
2023-05-11T04:18:44.400Z,82.70
2023-05-11T04:19:46.692Z,82.10
2023-05-11T04:20:48.846Z,81.70
2023-05-11T04:21:50.933Z,81.20
2023-05-11T04:22:53.047Z,80.70
2023-05-11T04:23:56.690Z,80.50
2023-05-11T04:25:11.599Z,80.10
2023-05-11T04:26:13.691Z,80.30
2023-05-11T04:27:16.567Z,79.20
2023-05-11T04:28:18.764Z,78.80
2023-05-11T04:29:20.887Z,78.50
2023-05-11T04:30:23.231Z,78.30
2023-05-11T04:31:25.451Z,78.10
2023-05-11T04:32:28.865Z,77.80
2023-05-11T04:33:31.296Z,77.50
2023-05-11T04:34:33.636Z,77.30
2023-05-11T04:35:39.765Z,77.00
2023-05-11T04:36:46.788Z,76.90
2023-05-11T04:37:49.073Z,76.60
2023-05-11T04:38:53.165Z,76.50
2023-05-11T04:39:57.121Z,76.20
2023-05-11T04:41:03.612Z,75.90
2023-05-11T04:42:05.834Z,75.80
2023-05-11T04:43:07.978Z,75.70
2023-05-11T04:44:10.565Z,75.70
2023-05-11T04:45:12.896Z,75.60
2023-05-11T04:46:15.486Z,75.40
2023-05-11T04:47:17.637Z,75.30
2023-05-11T04:48:20.875Z,75.20
2023-05-11T04:49:23.488Z,74.90
2023-05-11T04:50:25.684Z,74.70
2023-05-11T04:51:27.887Z,74.40
2023-05-11T04:52:30.085Z,74.20
2023-05-11T04:53:32.243Z,73.90
2023-05-11T04:54:34.473Z,73.70
2023-05-11T04:55:38.216Z,73.60
2023-05-11T04:56:41.031Z,73.20
2023-05-11T04:57:43.359Z,73.00
2023-05-11T04:58:45.513Z,72.60
2023-05-11T04:59:47.790Z,72.50
2023-05-11T05:00:50.093Z,72.20
2023-05-11T05:01:52.251Z,71.90
2023-05-11T05:02:54.587Z,71.40
2023-05-11T05:03:56.809Z,71.00
2023-05-11T05:04:58.956Z,70.50
2023-05-11T05:06:01.213Z,70.30
2023-05-11T05:07:04.338Z,70.10
2023-05-11T05:08:07.475Z,70.00
2023-05-11T05:09:10.265Z,69.90
2023-05-11T05:10:12.999Z,69.80
2023-05-11T05:11:16.718Z,69.40
2023-05-11T05:12:18.861Z,68.90
2023-05-11T05:13:21.521Z,68.50
2023-05-11T05:14:23.718Z,68.10
2023-05-11T05:15:25.968Z,67.90
2023-05-11T05:16:29.015Z,67.80
2023-05-11T05:17:32.296Z,67.40
2023-05-11T05:18:34.628Z,67.00
2023-05-11T05:19:37.375Z,66.70
2023-05-11T05:20:39.799Z,66.10
2023-05-11T05:21:42.726Z,65.80
2023-05-11T05:22:45.833Z,65.40
2023-05-11T05:23:48.098Z,64.90
2023-05-11T05:24:50.331Z,64.50
2023-05-11T05:25:52.489Z,64.30
2023-05-11T05:26:55.998Z,64.20
2023-05-11T05:27:58.116Z,64.00
2023-05-11T05:29:00.327Z,64.00
2023-05-11T05:30:02.434Z,64.00
2023-05-11T05:31:04.739Z,63.90
2023-05-11T05:32:06.962Z,63.30
2023-05-11T05:33:09.273Z,62.80
2023-05-11T05:34:14.702Z,62.90
2023-05-11T05:35:19.314Z,62.60
2023-05-11T05:36:21.457Z,62.30
2023-05-11T05:37:23.663Z,62.10
2023-05-11T05:38:25.913Z,61.90
2023-05-11T05:39:28.104Z,61.70
2023-05-11T05:40:30.503Z,61.60
2023-05-11T05:41:32.961Z,61.60
2023-05-11T05:42:36.500Z,61.50
2023-05-11T05:43:38.636Z,61.20
2023-05-11T05:44:40.937Z,60.90
2023-05-11T05:45:43.035Z,60.50
2023-05-11T05:46:45.630Z,60.80
2023-05-11T05:47:50.279Z,59.80
2023-05-11T05:48:52.415Z,59.60
2023-05-11T05:49:54.507Z,59.40
2023-05-11T05:50:56.613Z,59.10
2023-05-11T05:51:58.744Z,59.10
2023-05-11T05:53:00.963Z,59.00
2023-05-11T05:54:03.394Z,58.80
2023-05-11T05:55:06.563Z,58.70
2023-05-11T05:56:08.743Z,58.70
2023-05-11T05:57:11.892Z,58.60
2023-05-11T05:58:16.364Z,58.40
2023-05-11T05:59:21.180Z,58.70
2023-05-11T06:00:23.478Z,58.10
2023-05-11T06:01:25.634Z,58.20
2023-05-11T06:02:28.079Z,58.20
2023-05-11T06:03:30.511Z,58.00
2023-05-11T06:04:32.847Z,57.70
2023-05-11T06:05:35.015Z,57.30
2023-05-11T06:06:37.180Z,56.90
2023-05-11T06:07:39.604Z,56.50
2023-05-11T06:08:41.792Z,56.50
2023-05-11T06:09:43.896Z,56.40
2023-05-11T06:10:46.466Z,56.40
2023-05-11T06:11:48.636Z,56.30
2023-05-11T06:12:50.735Z,56.40
2023-05-11T06:13:54.231Z,56.30
2023-05-11T06:14:56.330Z,55.80
2023-05-11T06:15:58.552Z,55.70
2023-05-11T06:17:00.734Z,55.60
2023-05-11T06:18:03.119Z,55.70
2023-05-11T06:19:05.699Z,55.40
2023-05-11T06:20:09.480Z,55.10
2023-05-11T06:21:11.732Z,54.80
2023-05-11T06:22:13.866Z,54.50
2023-05-11T06:23:16.029Z,54.00
2023-05-11T06:24:18.405Z,53.80
2023-05-11T06:25:21.004Z,53.80
2023-05-11T06:26:25.265Z,53.50
2023-05-11T06:27:27.541Z,53.20
2023-05-11T06:28:30.103Z,53.10
2023-05-11T06:29:33.656Z,52.70
2023-05-11T06:30:35.873Z,52.60
2023-05-11T06:31:38.085Z,52.60
2023-05-11T06:33:26.628Z,52.60
2023-05-11T06:34:28.797Z,52.50
2023-05-11T06:35:31.165Z,52.30
2023-05-11T06:36:33.355Z,51.80
2023-05-11T06:37:35.641Z,51.20
2023-05-11T06:38:44.412Z,51.00
2023-05-11T06:39:47.117Z,50.70
2023-05-11T06:40:52.420Z,50.50
2023-05-11T06:41:55.225Z,50.50
2023-05-11T06:42:58.797Z,50.70
2023-05-11T06:44:00.942Z,50.60
2023-05-11T06:45:03.267Z,50.20
2023-05-11T06:46:05.804Z,49.70
2023-05-11T06:47:08.687Z,49.40
2023-05-11T06:48:10.865Z,49.30
2023-05-11T06:49:14.453Z,49.20
2023-05-11T06:50:18.006Z,49.10
2023-05-11T06:51:22.124Z,48.90
2023-05-11T06:52:24.304Z,48.70
2023-05-11T06:53:26.512Z,48.50
2023-05-11T06:54:28.697Z,47.80
2023-05-11T06:55:30.912Z,47.30
2023-05-11T06:56:34.346Z,47.00
2023-05-11T06:57:36.551Z,46.90
2023-05-11T06:58:38.706Z,46.60
2023-05-11T06:59:40.864Z,46.70
2023-05-11T07:00:43.032Z,46.00
2023-05-11T07:01:45.595Z,45.90
2023-05-11T07:02:47.857Z,46.00
2023-05-11T07:03:51.362Z,46.10
2023-05-11T07:04:57.082Z,46.00
2023-05-11T07:05:59.330Z,45.70
2023-05-11T07:07:01.592Z,45.60
2023-05-11T07:08:05.032Z,45.40
2023-05-11T07:09:07.220Z,44.80
2023-05-11T07:10:10.601Z,44.80
2023-05-11T07:11:13.362Z,45.10
2023-05-11T07:12:15.653Z,44.80
2023-05-11T07:13:17.848Z,44.40
2023-05-11T07:14:20.005Z,44.30
2023-05-11T07:15:22.556Z,44.10
2023-05-11T07:16:24.828Z,44.00
2023-05-11T07:17:28.637Z,44.20
2023-05-11T07:18:31.755Z,44.30
2023-05-11T07:19:33.918Z,44.60
2023-05-11T07:20:37.547Z,44.30
2023-05-11T07:21:39.744Z,43.60
2023-05-11T07:22:42.056Z,43.20
2023-05-11T07:23:44.637Z,43.00
2023-05-11T07:24:46.855Z,42.80
2023-05-11T07:25:50.789Z,42.70
2023-05-11T07:26:52.931Z,42.90
2023-05-11T07:27:55.848Z,42.80
2023-05-11T07:28:57.967Z,42.40
2023-05-11T07:30:00.178Z,42.20
2023-05-11T07:31:02.313Z,41.80
2023-05-11T07:32:04.914Z,41.60
2023-05-11T07:33:07.095Z,41.60
2023-05-11T07:34:09.347Z,41.50
2023-05-11T07:35:11.469Z,41.30
2023-05-11T07:36:15.044Z,41.50
2023-05-11T07:37:17.274Z,41.60
2023-05-11T07:38:19.453Z,41.80
2023-05-11T07:39:21.600Z,42.00
2023-05-11T07:40:23.950Z,42.10
2023-05-11T07:41:28.811Z,41.80
2023-05-11T07:42:31.056Z,41.60
2023-05-11T07:43:33.284Z,41.40
2023-05-11T07:44:35.461Z,41.70
2023-05-11T07:45:37.577Z,41.80
2023-05-11T07:46:39.845Z,42.40
2023-05-11T07:47:42.051Z,42.00
2023-05-11T07:48:44.337Z,41.70
2023-05-11T07:49:47.539Z,41.50
2023-05-11T07:50:49.759Z,41.60
2023-05-11T07:51:53.372Z,41.60
2023-05-11T07:52:55.599Z,41.60
2023-05-11T07:53:57.859Z,41.60
2023-05-11T07:55:00.117Z,41.60
2023-05-11T07:56:03.798Z,41.40
2023-05-11T07:57:06.779Z,41.60
2023-05-11T07:58:08.959Z,41.30
2023-05-11T07:59:11.140Z,40.90
2023-05-11T08:00:14.292Z,40.60
2023-05-11T08:01:16.400Z,40.00
2023-05-11T08:02:19.196Z,39.40
2023-05-11T08:03:21.881Z,38.90
2023-05-11T08:04:24.156Z,38.70
2023-05-11T08:05:27.085Z,38.70
2023-05-11T08:06:29.297Z,38.40
2023-05-11T08:07:32.894Z,37.80
2023-05-11T08:08:35.126Z,37.20
2023-05-11T08:09:37.450Z,37.30
2023-05-11T08:10:40.067Z,37.60
2023-05-11T08:11:42.247Z,37.40
2023-05-11T08:12:44.356Z,37.40
2023-05-11T08:13:46.500Z,37.50
2023-05-11T08:14:48.691Z,37.60
2023-05-11T08:15:50.884Z,37.70
2023-05-11T08:16:53.087Z,37.30
2023-05-11T08:17:55.552Z,37.20
2023-05-11T08:18:57.757Z,37.40
2023-05-11T08:19:59.963Z,37.50
2023-05-11T08:21:02.076Z,37.10
2023-05-11T08:22:04.315Z,36.50
2023-05-11T08:23:07.818Z,36.40
2023-05-11T08:24:10.588Z,36.40
2023-05-11T08:25:13.871Z,37.00
2023-05-11T08:26:16.274Z,37.20
2023-05-11T08:27:18.417Z,37.40
2023-05-11T08:28:21.154Z,37.60
2023-05-11T08:29:23.364Z,37.40
2023-05-11T08:30:25.755Z,37.10
2023-05-11T08:31:27.950Z,36.20
2023-05-11T08:32:30.523Z,36.00
2023-05-11T08:33:38.156Z,36.20
2023-05-11T08:34:41.084Z,36.20
2023-05-11T08:35:44.142Z,36.20
2023-05-11T08:36:46.889Z,36.10
2023-05-11T08:37:49.066Z,36.10
2023-05-11T08:38:56.957Z,36.10
2023-05-11T08:40:01.203Z,36.40
2023-05-11T08:41:04.967Z,36.50
2023-05-11T08:42:08.539Z,36.70
2023-05-11T08:43:11.497Z,36.70
2023-05-11T08:44:16.626Z,36.30
2023-05-11T08:45:19.871Z,36.10
2023-05-11T08:46:27.226Z,36.00
2023-05-11T08:47:30.188Z,36.00
2023-05-11T08:48:32.541Z,35.40
2023-05-11T08:49:35.492Z,35.30
2023-05-11T08:50:37.659Z,35.50
2023-05-11T08:51:39.989Z,34.70
2023-05-11T08:52:42.342Z,34.10
2023-05-11T08:53:44.817Z,34.00
2023-05-11T08:54:48.554Z,34.10
2023-05-11T08:55:51.614Z,34.00
2023-05-11T08:56:54.518Z,33.80
2023-05-11T08:57:58.726Z,33.70
2023-05-11T08:59:02.813Z,33.60
2023-05-11T09:00:05.802Z,33.40
2023-05-11T09:01:09.776Z,33.10
2023-05-11T09:02:16.440Z,33.50
2023-05-11T09:03:19.633Z,33.70
2023-05-11T09:04:24.568Z,34.10
2023-05-11T09:05:30.456Z,34.00
2023-05-11T09:06:33.565Z,34.00
2023-05-11T09:07:40.474Z,34.20
2023-05-11T09:08:45.362Z,34.50
2023-05-11T09:09:49.075Z,34.70
2023-05-11T09:10:52.065Z,34.70
2023-05-11T09:11:55.246Z,34.20
2023-05-11T09:12:57.436Z,33.80
2023-05-11T09:13:59.719Z,33.50
2023-05-11T09:15:02.274Z,32.90
2023-05-11T09:16:07.321Z,33.00
2023-05-11T09:17:13.674Z,33.20
2023-05-11T09:18:16.167Z,33.70
2023-05-11T09:19:18.323Z,33.90
2023-05-11T09:20:28.076Z,33.90
2023-05-11T09:21:31.600Z,33.90
2023-05-11T09:22:36.599Z,33.60
2023-05-11T09:23:40.354Z,33.20
2023-05-11T09:24:42.832Z,33.00
2023-05-11T09:25:48.969Z,32.90
2023-05-11T09:27:06.759Z,33.40
2023-05-11T09:28:15.920Z,33.50
2023-05-11T09:29:21.326Z,33.40
2023-05-11T09:30:24.226Z,33.10
2023-05-11T09:31:37.570Z,32.80
2023-05-11T09:32:51.007Z,33.70
2023-05-11T09:34:18.131Z,33.50
2023-05-11T09:35:22.117Z,32.80
2023-05-11T09:36:24.732Z,33.10
2023-05-11T09:37:26.898Z,33.00
2023-05-11T09:38:29.000Z,32.60
2023-05-11T09:40:39.801Z,32.60
2023-05-11T09:41:43.335Z,33.10
2023-05-11T09:42:45.501Z,33.50
2023-05-11T09:43:50.241Z,33.40
2023-05-11T09:44:52.930Z,33.00
2023-05-11T09:45:56.839Z,32.80
2023-05-11T09:47:11.737Z,32.70
2023-05-11T09:48:30.144Z,32.20
2023-05-11T09:49:33.271Z,32.00
2023-05-11T09:50:35.964Z,31.90
2023-05-11T09:51:40.510Z,31.80
2023-05-11T09:53:00.749Z,31.70
2023-05-11T09:54:17.212Z,32.20
2023-05-11T09:55:19.565Z,32.50
2023-05-11T09:56:22.120Z,32.20
2023-05-11T09:57:28.064Z,32.10
2023-05-11T09:58:49.539Z,32.20
2023-05-11T09:59:52.355Z,32.50
2023-05-11T10:00:54.544Z,32.60
2023-05-11T10:01:56.824Z,32.60
2023-05-11T10:03:04.270Z,32.60
2023-05-11T10:04:22.306Z,32.70
2023-05-11T10:05:27.771Z,32.60
2023-05-11T10:06:43.917Z,32.10
2023-05-11T10:07:58.100Z,32.20
2023-05-11T10:09:09.338Z,31.80
2023-05-11T10:10:12.527Z,31.60
2023-05-11T10:11:15.889Z,31.60
2023-05-11T10:12:21.308Z,31.80
2023-05-11T10:13:26.590Z,31.90
2023-05-11T10:14:30.474Z,31.60
2023-05-11T10:15:35.353Z,31.10
2023-05-11T10:16:37.843Z,30.90
2023-05-11T10:17:44.615Z,31.40
2023-05-11T10:18:47.236Z,31.20
2023-05-11T10:19:50.064Z,30.80
2023-05-11T10:20:53.065Z,30.80
2023-05-11T10:21:57.042Z,30.80
2023-05-11T10:22:59.374Z,30.90
2023-05-11T10:24:02.275Z,31.00
2023-05-11T10:25:06.518Z,30.80
2023-05-11T10:26:10.690Z,30.80
2023-05-11T10:27:13.365Z,30.80
2023-05-11T10:28:16.253Z,30.90
2023-05-11T10:29:20.529Z,30.90
2023-05-11T10:30:23.193Z,31.10
2023-05-11T10:31:26.190Z,31.10
2023-05-11T10:32:28.616Z,30.80
2023-05-11T10:33:31.497Z,30.70
2023-05-11T10:34:34.295Z,30.60
2023-05-11T10:35:39.198Z,30.70
2023-05-11T10:36:41.470Z,30.80
2023-05-11T10:37:43.836Z,31.50
2023-05-11T10:38:45.978Z,32.00
2023-05-11T10:39:50.438Z,31.40
2023-05-11T10:40:58.181Z,30.80
2023-05-11T10:42:17.661Z,30.60
2023-05-11T10:43:42.581Z,30.80
2023-05-11T10:45:21.532Z,30.20
2023-05-11T10:46:41.679Z,30.30
2023-05-11T10:48:09.840Z,30.10
2023-05-11T10:49:52.363Z,29.80
2023-05-11T10:51:48.076Z,29.20
2023-05-11T10:53:08.885Z,29.50
2023-05-11T10:54:26.936Z,29.20
2023-05-11T10:55:50.038Z,29.20
2023-05-11T10:57:13.422Z,29.00
2023-05-11T10:58:21.466Z,29.10
2023-05-11T10:59:53.623Z,29.00
2023-05-11T11:01:30.976Z,29.10
2023-05-11T11:02:33.726Z,28.90
2023-05-11T11:03:36.117Z,28.70
2023-05-11T11:04:46.496Z,28.50
2023-05-11T11:05:49.679Z,28.70
2023-05-11T11:07:05.171Z,28.70
2023-05-11T11:08:09.430Z,28.10
2023-05-11T11:09:13.674Z,28.00
2023-05-11T11:10:30.603Z,27.90
2023-05-11T11:11:35.975Z,27.80
2023-05-11T11:12:38.161Z,27.70
2023-05-11T11:13:58.844Z,27.70
2023-05-11T11:15:03.010Z,27.80
2023-05-11T11:16:15.428Z,27.90
2023-05-11T11:17:27.925Z,27.90
2023-05-11T11:18:33.416Z,27.70
2023-05-11T11:19:39.234Z,27.40
2023-05-11T11:20:48.941Z,27.40
2023-05-11T11:21:51.285Z,27.90
2023-05-11T11:22:53.463Z,28.20
2023-05-11T11:23:55.600Z,27.70
2023-05-11T11:24:57.950Z,27.70
2023-05-11T11:26:00.871Z,28.00
2023-05-11T11:27:03.310Z,28.00
2023-05-11T11:28:05.545Z,27.90
2023-05-11T11:29:13.732Z,27.60
2023-05-11T11:30:18.483Z,27.20
2023-05-11T11:31:25.565Z,27.30
2023-05-11T11:32:29.416Z,27.50
2023-05-11T11:33:33.154Z,27.30
2023-05-11T11:34:36.630Z,27.20
2023-05-11T11:35:46.015Z,27.00
2023-05-11T11:37:03.461Z,27.00
2023-05-11T11:38:06.513Z,27.90
2023-05-11T11:39:08.876Z,27.70
2023-05-11T11:40:15.225Z,27.30
2023-05-11T11:41:29.048Z,27.20
2023-05-11T11:42:37.881Z,27.50
2023-05-11T11:43:47.306Z,27.00
2023-05-11T11:44:49.495Z,26.90
2023-05-11T11:45:53.306Z,27.10
2023-05-11T11:47:10.926Z,26.90
2023-05-11T11:48:16.479Z,26.60
2023-05-11T11:49:27.690Z,26.90
2023-05-11T11:50:30.052Z,27.30
2023-05-11T11:51:34.737Z,27.80
2023-05-11T11:52:36.983Z,27.60
2023-05-11T11:54:00.696Z,27.30
2023-05-11T11:55:05.234Z,27.00
2023-05-11T11:56:09.077Z,27.50
2023-05-11T11:57:49.202Z,27.20
2023-05-11T11:58:58.703Z,26.90
2023-05-11T12:00:01.498Z,26.80
2023-05-11T12:01:05.351Z,27.10
2023-05-11T12:02:08.281Z,26.90
2023-05-11T12:03:10.991Z,26.70
2023-05-11T12:04:45.238Z,26.90
2023-05-11T12:05:51.057Z,27.00
2023-05-11T12:06:57.860Z,26.90
2023-05-11T12:08:05.718Z,26.90
2023-05-11T12:09:08.580Z,26.80
2023-05-11T12:10:13.646Z,26.50
2023-05-11T12:11:17.918Z,26.50
2023-05-11T12:12:21.054Z,26.40
2023-05-11T12:13:24.148Z,26.40
2023-05-11T12:14:27.750Z,26.80
2023-05-11T12:15:34.406Z,26.60
2023-05-11T12:16:36.889Z,26.40
2023-05-11T12:17:39.399Z,26.40
2023-05-11T12:18:42.642Z,26.50
2023-05-11T12:19:47.854Z,26.70
2023-05-11T12:20:50.768Z,26.60
2023-05-11T12:21:52.952Z,26.60
2023-05-11T12:22:55.858Z,26.70
2023-05-11T12:24:00.253Z,26.60
2023-05-11T12:25:06.002Z,26.40
2023-05-11T12:26:08.764Z,26.90
2023-05-11T12:27:11.377Z,27.30
2023-05-11T12:28:13.963Z,27.40
2023-05-11T12:29:16.196Z,27.00
2023-05-11T12:30:22.948Z,27.30
2023-05-11T12:31:27.204Z,27.30
2023-05-11T12:32:30.792Z,27.30
2023-05-11T12:33:33.217Z,27.30
2023-05-11T12:34:35.599Z,26.90
2023-05-11T12:35:40.475Z,26.60
2023-05-11T12:36:44.129Z,26.70
2023-05-11T12:37:46.282Z,27.60
2023-05-11T12:38:49.180Z,27.70
2023-05-11T12:39:55.559Z,27.00
2023-05-11T12:40:57.663Z,26.70
2023-05-11T12:41:59.868Z,26.60
2023-05-11T12:43:02.013Z,26.60
2023-05-11T12:44:04.471Z,26.80
2023-05-11T12:45:07.791Z,26.60
2023-05-11T12:46:10.091Z,26.80
2023-05-11T12:47:12.653Z,26.60
2023-05-11T12:48:15.436Z,26.60
2023-05-11T12:49:24.765Z,26.90
2023-05-11T12:50:27.956Z,26.70
2023-05-11T12:51:51.986Z,26.90
2023-05-11T12:52:54.317Z,27.00
2023-05-11T12:53:56.876Z,26.90
2023-05-11T12:55:00.837Z,26.70
2023-05-11T12:56:04.762Z,26.90
2023-05-11T12:57:08.518Z,26.80
2023-05-11T12:58:12.464Z,26.80
2023-05-11T12:59:32.094Z,27.00
2023-05-11T13:00:34.521Z,27.00
2023-05-11T13:01:36.916Z,26.90
2023-05-11T13:02:50.003Z,27.00
2023-05-11T13:03:52.772Z,27.10
2023-05-11T13:04:54.989Z,27.00
2023-05-11T13:06:05.557Z,26.80
2023-05-11T13:07:09.871Z,27.00
2023-05-11T13:08:14.774Z,27.00
2023-05-11T13:09:22.664Z,26.80
2023-05-11T13:10:26.847Z,27.00
2023-05-11T13:11:28.986Z,27.30
2023-05-11T13:12:32.701Z,27.30
2023-05-11T13:13:35.331Z,27.30
2023-05-11T13:14:39.041Z,27.10
2023-05-11T13:15:51.655Z,27.20
2023-05-11T13:16:54.257Z,27.10
2023-05-11T13:17:57.969Z,26.90
2023-05-11T13:19:01.278Z,26.60
2023-05-11T13:20:20.039Z,26.60
2023-05-11T13:21:22.673Z,26.90
2023-05-11T13:22:26.479Z,26.30
2023-05-11T13:23:31.296Z,26.50
2023-05-11T13:24:34.639Z,26.50
2023-05-11T13:25:56.030Z,26.60
2023-05-11T13:26:59.611Z,26.50
2023-05-11T13:28:01.764Z,26.50
2023-05-11T13:29:10.614Z,26.70
2023-05-11T13:30:13.787Z,26.80
2023-05-11T13:31:16.144Z,26.80
2023-05-11T13:32:18.544Z,26.70
2023-05-11T13:33:20.856Z,26.70
2023-05-11T13:34:23.190Z,26.60
2023-05-11T13:35:25.352Z,26.60
2023-05-11T13:36:27.586Z,26.70
2023-05-11T13:37:32.287Z,26.80
2023-05-11T13:38:34.588Z,26.70
2023-05-11T13:39:36.784Z,26.70
2023-05-11T13:40:39.317Z,26.60
2023-05-11T13:41:41.581Z,26.80
2023-05-11T13:42:43.947Z,26.90
2023-05-11T13:43:46.232Z,26.80
2023-05-11T13:44:48.341Z,26.70
2023-05-11T13:45:50.700Z,26.40
2023-05-11T13:46:52.856Z,26.20
2023-05-11T13:47:55.620Z,26.20
2023-05-11T13:48:59.686Z,26.30
2023-05-11T13:50:01.946Z,26.20
2023-05-11T13:51:04.271Z,26.10
2023-05-11T13:52:06.973Z,26.00
2023-05-11T13:53:12.985Z,26.00
2023-05-11T13:54:15.883Z,25.80
2023-05-11T13:55:18.537Z,26.20
2023-05-11T13:56:21.446Z,25.80